createdAt,value
2023-08-28T00:03:55.842Z,100459.47
2023-08-28T00:09:21.552Z,100458.96
2023-08-28T00:14:47.631Z,100465.44
2023-08-28T00:20:12.290Z,100472.69
2023-08-28T00:25:38.048Z,100479.17
2023-08-28T00:31:03.733Z,100483.04
2023-08-28T00:36:29.460Z,100483.87
2023-08-28T00:41:55.162Z,100498.36
2023-08-28T00:47:22.300Z,100502.01
2023-08-28T00:52:48.077Z,100508.31
2023-08-28T00:58:15.267Z,100514.09
2023-08-28T01:03:40.944Z,100514.85
2023-08-28T01:09:16.252Z,100517.92
2023-08-28T01:14:46.863Z,100527.20
2023-08-28T01:20:13.758Z,100527.36
2023-08-28T01:25:40.659Z,100530.13
2023-08-28T01:31:07.245Z,100536.41
2023-08-28T01:36:42.840Z,100533.75
2023-08-28T01:42:11.520Z,100536.38
2023-08-28T01:47:37.337Z,100539.69
2023-08-28T01:53:03.154Z,100536.51
2023-08-28T01:58:30.220Z,100536.52
2023-08-28T02:03:56.312Z,100533.95
2023-08-28T02:09:22.044Z,100529.12
2023-08-28T02:14:47.797Z,100521.91
2023-08-28T02:20:13.465Z,100519.11
2023-08-28T02:26:06.966Z,100516.95
2023-08-28T02:31:25.706Z,100513.52
2023-08-28T02:36:51.418Z,100517.84
2023-08-28T02:42:17.119Z,100520.21
2023-08-28T02:47:42.794Z,100520.67
2023-08-28T02:53:08.517Z,100534.36
2023-08-28T02:58:34.344Z,100546.75
2023-08-28T03:04:00.074Z,100551.95
2023-08-28T03:09:26.584Z,100559.81
2023-08-28T03:14:52.333Z,100568.77
2023-08-28T03:20:18.026Z,100575.29
2023-08-28T03:25:43.946Z,100585.64
2023-08-28T03:31:09.789Z,100577.38
2023-08-28T03:36:35.584Z,100579.18
2023-08-28T03:42:00.973Z,100581.47
2023-08-28T03:47:27.312Z,100590.34
2023-08-28T03:52:53.045Z,100599.18
2023-08-28T03:58:19.948Z,100604.95
2023-08-28T04:03:45.864Z,100597.73
2023-08-28T04:09:13.875Z,100593.60
2023-08-28T04:14:31.818Z,100589.77
2023-08-28T04:19:51.970Z,100593.96
2023-08-28T04:25:17.642Z,100586.98
2023-08-28T04:30:43.825Z,100576.50
2023-08-28T04:36:09.482Z,100564.09
2023-08-28T04:41:35.206Z,100561.61
2023-08-28T04:47:00.933Z,100558.14
2023-08-28T04:52:27.633Z,100567.13
2023-08-28T04:57:53.324Z,100564.36
2023-08-28T05:03:12.934Z,100557.72
2023-08-28T05:08:31.734Z,100562.99
2023-08-28T05:13:57.395Z,100565.05
2023-08-28T05:19:23.154Z,100572.03
2023-08-28T05:24:48.585Z,100573.15
2023-08-28T05:30:14.623Z,100574.79
2023-08-28T05:35:40.667Z,100569.95
2023-08-28T05:41:07.184Z,100573.55
2023-08-28T05:46:35.288Z,100571.61
2023-08-28T05:52:01.231Z,100578.38
2023-08-28T05:57:30.190Z,100581.80
2023-08-28T06:03:05.159Z,100587.48
2023-08-28T06:08:31.659Z,100590.34
2023-08-28T06:13:57.335Z,100598.34
2023-08-28T06:19:23.088Z,100601.51
2023-08-28T06:24:48.803Z,100601.35
2023-08-28T06:30:14.499Z,100604.45
2023-08-28T06:35:40.267Z,100606.21
2023-08-28T06:41:12.975Z,100604.02
2023-08-28T06:46:38.840Z,100599.59
2023-08-28T06:52:04.603Z,100601.11
2023-08-28T06:57:30.465Z,100610.04
2023-08-28T07:02:57.041Z,100610.20
2023-08-28T07:08:22.970Z,100621.99
2023-08-28T07:13:48.497Z,100618.02
2023-08-28T07:19:14.209Z,100621.80
2023-08-28T07:24:39.913Z,100624.20
2023-08-28T07:29:59.637Z,100628.04
2023-08-28T07:35:26.216Z,100623.80
2023-08-28T07:40:51.940Z,100630.83
2023-08-28T07:46:17.691Z,100638.64
2023-08-28T07:51:43.443Z,100640.94
2023-08-28T07:57:09.137Z,100639.00
2023-08-28T08:02:34.867Z,100641.17
2023-08-28T08:08:01.705Z,100638.27
2023-08-28T08:13:27.695Z,100636.34
2023-08-28T08:18:53.577Z,100646.19
2023-08-28T08:24:19.296Z,100639.71
2023-08-28T08:29:45.043Z,100629.98
2023-08-28T08:35:12.687Z,100622.31
2023-08-28T08:40:45.483Z,100618.83
2023-08-28T08:46:17.050Z,100607.77
2023-08-28T08:51:45.357Z,100597.92
2023-08-28T08:57:15.182Z,100595.19
2023-08-28T09:02:41.082Z,100599.37
2023-08-28T09:08:09.565Z,100609.01
2023-08-28T09:13:27.697Z,100601.98
2023-08-28T09:18:53.600Z,100599.65
2023-08-28T09:24:21.308Z,100613.67
2023-08-28T09:29:48.321Z,100623.22
2023-08-28T09:35:16.957Z,100630.64
2023-08-28T09:40:49.110Z,100640.08
2023-08-28T09:46:21.637Z,100647.73
2023-08-28T09:52:01.727Z,100646.84
2023-08-28T09:57:37.746Z,100649.94
2023-08-28T10:03:07.261Z,100648.08
2023-08-28T10:08:35.783Z,100640.05
2023-08-28T10:14:02.814Z,100632.29
2023-08-28T10:19:38.523Z,100637.06
2023-08-28T10:25:08.086Z,100630.63
2023-08-28T10:30:36.111Z,100633.02
2023-08-28T10:36:04.516Z,100627.40
2023-08-28T10:41:30.783Z,100631.33
2023-08-28T10:46:50.680Z,100629.39
2023-08-28T10:52:26.378Z,100626.77
2023-08-28T10:57:52.092Z,100627.65
2023-08-28T11:03:28.736Z,100621.17
2023-08-28T11:08:58.007Z,100609.95
2023-08-28T11:14:23.723Z,100602.55
2023-08-28T11:19:51.506Z,100603.13
2023-08-28T11:25:17.593Z,100605.97
2023-08-28T11:30:45.650Z,100621.73
2023-08-28T11:36:11.662Z,100619.69
2023-08-28T11:41:37.793Z,100616.20
2023-08-28T11:47:04.036Z,100622.42
2023-08-28T11:52:38.582Z,100628.71
2023-08-28T11:58:05.717Z,100633.31
2023-08-28T12:03:39.574Z,100640.39
2023-08-28T12:09:06.287Z,100644.83
2023-08-28T12:14:38.804Z,100641.70
2023-08-28T12:20:05.047Z,100640.90
2023-08-28T12:25:30.990Z,100638.97
2023-08-28T12:30:56.759Z,100636.04
2023-08-28T12:36:25.079Z,100631.90
2023-08-28T12:41:54.528Z,100623.77
2023-08-28T12:47:20.195Z,100616.98
2023-08-28T12:52:45.944Z,100616.14
2023-08-28T12:58:11.645Z,100614.33
2023-08-28T13:03:37.396Z,100602.29
2023-08-28T13:08:55.541Z,100591.48
2023-08-28T13:14:21.593Z,100581.93
2023-08-28T13:19:47.608Z,100587.81
2023-08-28T13:25:13.569Z,100580.63
2023-08-28T13:30:39.429Z,100568.63
2023-08-28T13:36:05.323Z,100563.62
2023-08-28T13:41:31.345Z,100561.84
2023-08-28T13:46:57.075Z,100562.30
2023-08-28T13:52:22.834Z,100557.95
2023-08-28T13:57:48.859Z,100560.35
2023-08-28T14:03:14.733Z,100564.11
2023-08-28T14:08:40.510Z,100560.76
2023-08-28T14:14:06.447Z,100569.80
2023-08-28T14:19:32.167Z,100577.98
2023-08-28T14:24:58.029Z,100592.34
2023-08-28T14:30:24.087Z,100593.61
2023-08-28T14:35:49.932Z,100582.52
2023-08-28T14:41:07.788Z,100580.06
2023-08-28T14:46:33.650Z,100590.34
2023-08-28T14:51:59.335Z,100590.42
2023-08-28T14:57:25.576Z,100591.86
2023-08-28T15:08:44.197Z,100599.23
2023-08-28T15:14:10.067Z,100587.48
2023-08-28T15:19:35.874Z,100578.18
2023-08-28T15:25:01.727Z,100592.05
2023-08-28T15:30:29.604Z,100595.56
2023-08-28T15:35:56.265Z,100604.04
2023-08-28T15:41:24.138Z,100609.93
2023-08-28T15:46:50.011Z,100602.92
2023-08-28T15:52:15.818Z,100592.39
2023-08-28T15:57:41.664Z,100581.49
2023-08-28T16:03:07.755Z,100577.45
2023-08-28T16:08:33.959Z,100572.42
2023-08-28T16:13:59.781Z,100575.53
2023-08-28T16:19:26.305Z,100574.31
2023-08-28T16:24:52.346Z,100580.73
2023-08-28T16:30:18.116Z,100584.30
2023-08-28T16:35:44.147Z,100589.15
2023-08-28T16:41:11.447Z,100597.73
2023-08-28T16:46:37.298Z,100603.89
2023-08-28T16:52:03.519Z,100592.39
2023-08-28T16:57:29.750Z,100590.92
2023-08-28T17:02:56.245Z,100603.59
2023-08-28T17:08:26.372Z,100607.83
2023-08-28T17:13:52.206Z,100600.76
2023-08-28T17:19:17.885Z,100603.58
2023-08-28T17:24:36.091Z,100609.70
2023-08-28T17:30:01.903Z,100603.80
2023-08-28T17:35:28.599Z,100602.70
2023-08-28T17:40:54.287Z,100596.87
2023-08-28T17:46:20.366Z,100595.41
2023-08-28T17:51:46.020Z,100595.30
2023-08-28T17:57:11.744Z,100604.91
2023-08-28T18:02:57.648Z,100605.59
2023-08-28T18:08:25.853Z,100601.16
2023-08-28T18:13:53.678Z,100607.95
2023-08-28T18:19:19.431Z,100605.05
2023-08-28T18:24:29.693Z,100601.45
2023-08-28T18:29:55.376Z,100603.29
2023-08-28T18:35:21.051Z,100607.70
2023-08-28T18:40:46.781Z,100618.70
2023-08-28T18:46:12.618Z,100631.46
2023-08-28T18:51:38.320Z,100633.48
2023-08-28T18:57:04.048Z,100640.22
2023-08-28T19:02:29.892Z,100628.45
2023-08-28T19:07:55.726Z,100614.73
2023-08-28T19:13:21.664Z,100622.27
2023-08-28T19:18:47.457Z,100622.25
2023-08-28T19:24:14.082Z,100621.95
2023-08-28T19:29:39.297Z,100620.94
2023-08-28T19:35:04.966Z,100624.29
2023-08-28T19:40:33.307Z,100628.50
2023-08-28T19:46:02.167Z,100629.61
2023-08-28T19:51:29.425Z,100618.40
2023-08-28T19:56:55.157Z,100615.55
2023-08-28T20:02:20.870Z,100615.43
2023-08-28T20:07:46.561Z,100609.23
2023-08-28T20:13:12.355Z,100604.08
2023-08-28T20:18:38.366Z,100598.68
2023-08-28T20:24:04.297Z,100598.77
2023-08-28T20:29:30.065Z,100598.52
2023-08-28T20:34:56.149Z,100602.66
2023-08-28T20:40:21.876Z,100584.19
2023-08-28T20:45:47.581Z,100582.12
2023-08-28T20:51:24.258Z,100584.05
2023-08-28T20:56:50.049Z,100577.17
2023-08-28T21:02:15.746Z,100577.86
2023-08-28T21:07:41.444Z,100584.55
2023-08-28T21:13:07.166Z,100585.59
2023-08-28T21:18:32.885Z,100592.88
2023-08-28T21:23:58.744Z,100602.75
2023-08-28T21:29:25.421Z,100595.13
2023-08-28T21:34:51.167Z,100579.33
2023-08-28T21:40:17.095Z,100570.20
2023-08-28T21:45:42.889Z,100568.94
2023-08-28T21:51:08.557Z,100571.02
2023-08-28T21:56:34.487Z,100571.02
2023-08-28T22:02:00.363Z,100560.02
2023-08-28T22:07:26.302Z,100562.52
2023-08-28T22:13:00.389Z,100554.03
2023-08-28T22:19:03.807Z,100545.86
2023-08-28T22:24:17.852Z,100550.02
2023-08-28T22:29:43.492Z,100551.84
2023-08-28T22:35:09.167Z,100552.14
2023-08-28T22:40:35.137Z,100549.98
2023-08-28T22:46:02.797Z,100547.55
2023-08-28T22:51:30.920Z,100564.02
2023-08-28T22:56:56.579Z,100583.89
2023-08-28T23:02:22.353Z,100584.20
2023-08-28T23:07:48.092Z,100588.58
2023-08-28T23:13:13.767Z,100576.89
2023-08-28T23:18:39.596Z,100560.48
2023-08-28T23:24:05.279Z,100542.81
2023-08-28T23:29:31.043Z,100538.39
2023-08-28T23:34:57.415Z,100550.27
2023-08-28T23:40:23.287Z,100549.90
2023-08-28T23:45:49.052Z,100546.06
2023-08-28T23:51:14.587Z,100550.33
2023-08-28T23:56:40.269Z,100531.01
